Accueil
METAR-TAF:

METAR-TAF

Aéroports :

Eastmain, Québec, Canada

latitude: 52-14N, longitude: 078-31W, altitude: 7 m

Observation

Le bulletin a été fait il y a 16 heures et 53 minutes, à 20:00 UTC
Vent 8 kt de ouest/nord-ouest
Température -1°C
Humidité 93%
Pression 1023 hPa
Visibilité: 24.1 km
Nuages fragmentés à une hauteur de 300 ft
Nuages fragmentés à une hauteur de 10000 ft

METAR: CZEM 032000Z 30008KT 15SM BKN003 BKN100 M01/M02 A3020 RMK SF5AS2 LAST SFTD OBS/NEXT 051400 UTC SLP229

Heure: 08:53 (12:53 UTC)


TAF: absent

Observations et prévisions météorologiques de plus de 4000 aéroports (messages METAR et TAF).

Les stations disponibles sont représentées par des disques jaunes et rouges sur la carte.

Passer la souris dessus pour voir le nom de la station.

Cliquer dessus pour voir les observations et prévisions météorologiques.

Pour changer de carte: cliquez sur les boutons verts avec une croix noire pour zoomer, sur le bouton vert avec un tiret pour effectuer un zoom arrière, ou sur les flèches vertes pour les cartes adjacentes.


METAR-TAF: